Time;durP1;ratioP1;P1;durP2;ratioP2;P2;SDS_P1;SDS_P2;PMS_P1;PMS_P2;Temp;Humidity;BMP_temperature;BMP_pressure;BME280_temperature;BME280_humidity;BME280_pressure;Samples;Min_cycle;Max_cycle;Signal;HPM_P1;HPM_P2
2022/10/31 00:01:33;;;;;;;36.35;19.63;;;;;;;;;;5093178;28;20047;-68
2022/10/31 00:03:59;;;;;;;34.60;19.33;;;;;;;;;;5094938;28;20048;-68
2022/10/31 00:06:25;;;;;;;34.47;19.75;;;;;;;;;;5089262;28;20864;-68
2022/10/31 00:08:56;;;;;;;29.13;17.85;;;;;;;;;;5092012;28;20044;-70
2022/10/31 00:11:22;;;;;;;27.77;17.20;;;;;;;;;;5096730;27;20056;-70
2022/10/31 00:13:48;;;;;;;29.10;15.68;;;;;;;;;;5100571;27;20909;-69
2022/10/31 00:16:15;;;;;;;26.50;15.50;;;;;;;;;;5095503;27;20044;-69
2022/10/31 00:18:41;;;;;;;27.83;14.95;;;;;;;;;;5089349;28;20127;-71
2022/10/31 00:21:07;;;;;;;25.17;14.25;;;;;;;;;;5092605;28;20036;-71
2022/10/31 00:23:33;;;;;;;25.33;14.50;;;;;;;;;;5094551;27;20047;-72
2022/10/31 00:26:03;;;;;;;27.35;15.25;;;;;;;;;;5098704;27;20156;-70
2022/10/31 00:28:30;;;;;;;26.60;14.10;;;;;;;;;;5097916;28;20044;-70
2022/10/31 00:31:00;;;;;;;27.73;14.85;;;;;;;;;;5099770;27;20046;-67
2022/10/31 00:33:26;;;;;;;28.40;15.73;;;;;;;;;;5077846;27;20063;-68
2022/10/31 00:35:52;;;;;;;28.00;16.08;;;;;;;;;;5102117;27;20040;-68
2022/10/31 00:38:18;;;;;;;27.75;16.25;;;;;;;;;;5096028;27;20052;-67
2022/10/31 00:40:44;;;;;;;31.70;17.27;;;;;;;;;;5098208;27;20539;-68
2022/10/31 00:43:10;;;;;;;30.63;16.85;;;;;;;;;;5095716;28;20069;-68
2022/10/31 00:45:36;;;;;;;30.67;17.42;;;;;;;;;;5096424;28;20035;-70
2022/10/31 00:48:02;;;;;;;32.00;16.50;;;;;;;;;;5091511;28;20384;-69
2022/10/31 00:50:28;;;;;;;25.30;16.52;;;;;;;;;;5097775;28;20047;-69
2022/10/31 00:52:54;;;;;;;30.58;16.35;;;;;;;;;;5096259;27;20044;-68
2022/10/31 00:55:20;;;;;;;28.98;16.48;;;;;;;;;;5098372;27;21020;-71
2022/10/31 00:57:49;;;;;;;30.08;16.13;;;;;;;;;;5097006;27;20044;-69
2022/10/31 01:00:15;;;;;;;26.83;16.15;;;;;;;;;;5099628;27;20044;-68
2022/10/31 01:02:41;;;;;;;27.27;16.90;;;;;;;;;;5097097;27;20039;-67
2022/10/31 01:05:07;;;;;;;29.58;16.77;;;;;;;;;;5101298;27;20051;-70
2022/10/31 01:07:36;;;;;;;34.40;17.00;;;;;;;;;;5093306;28;20176;-69
2022/10/31 01:10:02;;;;;;;26.42;16.83;;;;;;;;;;5095161;28;20120;-67
2022/10/31 01:12:28;;;;;;;28.08;16.75;;;;;;;;;;5096632;28;20039;-68
2022/10/31 01:14:54;;;;;;;33.72;17.55;;;;;;;;;;5092715;28;20043;-71
2022/10/31 01:17:20;;;;;;;30.52;16.60;;;;;;;;;;5101867;27;20046;-68
2022/10/31 01:19:46;;;;;;;30.52;17.90;;;;;;;;;;5095985;27;20109;-68
2022/10/31 01:22:12;;;;;;;33.97;17.75;;;;;;;;;;5097383;27;20043;-68
2022/10/31 01:24:38;;;;;;;32.78;18.63;;;;;;;;;;5079949;28;20040;-68
2022/10/31 01:27:04;;;;;;;33.42;19.50;;;;;;;;;;5098122;27;20044;-68
2022/10/31 01:29:30;;;;;;;34.40;19.33;;;;;;;;;;5099159;27;20039;-68
2022/10/31 01:31:56;;;;;;;35.47;21.08;;;;;;;;;;5094020;27;20044;-68
2022/10/31 01:34:21;;;;;;;30.17;19.30;;;;;;;;;;5094375;28;20048;-69
2022/10/31 01:36:50;;;;;;;35.38;19.45;;;;;;;;;;5093561;27;20047;-68
2022/10/31 01:39:18;;;;;;;31.45;19.42;;;;;;;;;;5091967;28;20135;-67
2022/10/31 01:41:45;;;;;;;34.05;18.48;;;;;;;;;;5095674;27;20131;-68
2022/10/31 01:44:14;;;;;;;30.77;18.02;;;;;;;;;;5091491;27;20059;-71
2022/10/31 01:46:40;;;;;;;34.33;19.65;;;;;;;;;;5095090;27;20071;-69
2022/10/31 01:49:10;;;;;;;31.77;19.05;;;;;;;;;;5098087;28;20454;-67
2022/10/31 01:51:37;;;;;;;38.20;19.60;;;;;;;;;;5100961;27;20042;-68
2022/10/31 01:54:08;;;;;;;29.58;18.15;;;;;;;;;;5096843;27;20051;-71
2022/10/31 01:56:35;;;;;;;32.40;19.58;;;;;;;;;;5098916;27;20039;-69
2022/10/31 01:59:02;;;;;;;29.45;17.95;;;;;;;;;;5095313;28;20043;-68
2022/10/31 02:01:29;;;;;;;33.80;18.48;;;;;;;;;;5094647;28;20044;-71
2022/10/31 02:03:55;;;;;;;32.33;18.83;;;;;;;;;;5073250;28;20078;-68
2022/10/31 02:06:28;;;;;;;34.60;19.13;;;;;;;;;;5093092;28;20059;-71
2022/10/31 02:08:55;;;;;;;31.60;18.08;;;;;;;;;;5095414;28;21148;-69
2022/10/31 02:11:21;;;;;;;33.55;18.10;;;;;;;;;;5096459;27;20050;-70
2022/10/31 02:13:47;;;;;;;30.42;17.83;;;;;;;;;;5092841;27;20043;-68
2022/10/31 02:16:13;;;;;;;29.70;18.05;;;;;;;;;;5097650;28;20122;-70
2022/10/31 02:18:39;;;;;;;23.67;16.85;;;;;;;;;;5096727;27;20454;-70
2022/10/31 02:21:22;;;;;;;26.98;17.80;;;;;;;;;;5100824;27;20063;-70
2022/10/31 02:24:03;;;;;;;34.70;17.25;;;;;;;;;;5094633;28;20051;-70
2022/10/31 02:26:38;;;;;;;27.30;16.27;;;;;;;;;;5097718;28;20048;-69
2022/10/31 02:29:04;;;;;;;24.08;14.63;;;;;;;;;;5090653;28;20150;-71
2022/10/31 02:31:35;;;;;;;23.15;15.48;;;;;;;;;;5092700;28;20048;-68
2022/10/31 02:34:07;;;;;;;26.75;15.65;;;;;;;;;;5092279;28;20081;-71
2022/10/31 02:36:44;;;;;;;24.13;14.55;;;;;;;;;;5089332;27;20044;-68
2022/10/31 02:39:19;;;;;;;20.17;14.63;;;;;;;;;;5095545;27;20043;-68
2022/10/31 02:41:51;;;;;;;28.52;15.38;;;;;;;;;;5094510;28;20506;-70
2022/10/31 02:44:21;;;;;;;22.52;14.18;;;;;;;;;;5094362;28;20553;-68
2022/10/31 02:46:47;;;;;;;22.33;14.20;;;;;;;;;;5093405;28;20092;-69
2022/10/31 02:49:36;;;;;;;18.10;13.82;;;;;;;;;;5099381;27;20486;-69
2022/10/31 02:52:02;;;;;;;22.10;13.90;;;;;;;;;;5062644;27;20051;-71
2022/10/31 02:54:29;;;;;;;16.98;12.88;;;;;;;;;;5093041;28;21986;-68
2022/10/31 02:56:59;;;;;;;20.27;13.40;;;;;;;;;;5093320;28;20123;-71
2022/10/31 02:59:25;;;;;;;18.27;12.57;;;;;;;;;;5091893;28;20048;-71
2022/10/31 03:02:00;;;;;;;22.08;13.10;;;;;;;;;;5091961;28;20044;-71
2022/10/31 03:04:29;;;;;;;21.70;13.23;;;;;;;;;;5093572;28;20048;-70
2022/10/31 03:06:55;;;;;;;20.55;13.07;;;;;;;;;;5097647;27;20112;-71
2022/10/31 03:09:28;;;;;;;20.90;13.00;;;;;;;;;;5093159;27;20078;-70
2022/10/31 03:12:12;;;;;;;20.65;13.57;;;;;;;;;;5093166;27;20410;-69
2022/10/31 03:14:41;;;;;;;25.40;13.93;;;;;;;;;;5097652;28;20067;-72
2022/10/31 03:17:10;;;;;;;23.42;14.52;;;;;;;;;;5097550;27;20505;-71
2022/10/31 03:19:43;;;;;;;23.83;13.52;;;;;;;;;;5093825;28;20477;-71
2022/10/31 03:22:16;;;;;;;22.92;14.32;;;;;;;;;;5092742;28;20486;-70
2022/10/31 03:24:43;;;;;;;23.02;13.88;;;;;;;;;;5092869;28;20040;-70
2022/10/31 03:27:12;;;;;;;20.80;13.52;;;;;;;;;;5089045;28;20155;-70
2022/10/31 03:29:38;;;;;;;19.98;13.77;;;;;;;;;;5096780;28;20093;-70
2022/10/31 03:32:09;;;;;;;19.35;12.15;;;;;;;;;;5093813;28;20102;-69
2022/10/31 03:34:37;;;;;;;19.10;11.60;;;;;;;;;;5093642;28;20044;-71
2022/10/31 03:37:05;;;;;;;17.50;12.77;;;;;;;;;;5093206;28;20109;-68
2022/10/31 03:39:31;;;;;;;17.98;12.45;;;;;;;;;;5097678;28;20130;-70
2022/10/31 03:41:59;;;;;;;15.75;11.80;;;;;;;;;;5095790;28;20046;-69
2022/10/31 03:44:27;;;;;;;17.60;12.50;;;;;;;;;;5093518;28;20071;-68
2022/10/31 03:46:53;;;;;;;19.88;13.10;;;;;;;;;;5096635;28;20447;-69
2022/10/31 03:49:20;;;;;;;19.33;12.52;;;;;;;;;;5097953;27;20061;-71
2022/10/31 03:51:48;;;;;;;21.80;11.80;;;;;;;;;;5093483;28;20406;-70
2022/10/31 03:54:14;;;;;;;15.40;11.23;;;;;;;;;;5096420;28;20151;-71
2022/10/31 03:57:13;;;;;;;23.35;13.52;;;;;;;;;;5099720;28;20142;-70
2022/10/31 03:59:45;;;;;;;18.50;12.73;;;;;;;;;;5058875;27;20144;-69
2022/10/31 04:02:17;;;;;;;16.05;13.45;;;;;;;;;;5097152;27;20047;-67
2022/10/31 04:04:44;;;;;;;14.60;10.45;;;;;;;;;;5096840;27;20152;-69
2022/10/31 04:07:10;;;;;;;16.98;10.70;;;;;;;;;;5098258;27;20410;-71
2022/10/31 04:09:37;;;;;;;16.35;11.15;;;;;;;;;;5098773;27;20034;-71
2022/10/31 04:12:06;;;;;;;21.42;13.70;;;;;;;;;;5098743;28;20071;-71
2022/10/31 04:14:33;;;;;;;23.67;14.93;;;;;;;;;;5099635;27;20256;-70
2022/10/31 04:16:59;;;;;;;23.20;15.18;;;;;;;;;;5093089;28;20048;-68
2022/10/31 04:19:25;;;;;;;21.52;14.20;;;;;;;;;;5095141;27;20063;-70
2022/10/31 04:21:51;;;;;;;20.90;14.68;;;;;;;;;;5091884;28;20438;-68
2022/10/31 04:24:17;;;;;;;25.90;15.38;;;;;;;;;;5097975;27;20112;-68
2022/10/31 04:26:43;;;;;;;36.05;15.40;;;;;;;;;;5097182;28;20044;-69
2022/10/31 04:29:09;;;;;;;20.83;13.70;;;;;;;;;;5100833;27;20048;-68
2022/10/31 04:31:35;;;;;;;19.83;12.93;;;;;;;;;;5096948;28;20100;-68
2022/10/31 04:34:01;;;;;;;17.75;12.50;;;;;;;;;;5097807;27;20052;-71
2022/10/31 04:36:27;;;;;;;17.45;11.88;;;;;;;;;;5097432;27;20043;-70
2022/10/31 04:38:53;;;;;;;17.88;11.80;;;;;;;;;;5097827;27;20052;-71
2022/10/31 04:41:19;;;;;;;15.27;11.77;;;;;;;;;;5097232;28;20046;-71
2022/10/31 04:43:45;;;;;;;16.40;11.85;;;;;;;;;;5092426;28;20054;-70
2022/10/31 04:46:11;;;;;;;17.15;10.00;;;;;;;;;;5092962;28;21342;-68
2022/10/31 04:48:37;;;;;;;7.85;5.90;;;;;;;;;;5097131;28;20426;-69
2022/10/31 04:51:03;;;;;;;12.93;8.48;;;;;;;;;;5096949;27;20149;-67
2022/10/31 04:53:29;;;;;;;20.05;8.45;;;;;;;;;;5079250;27;20109;-70
2022/10/31 04:55:55;;;;;;;18.45;8.48;;;;;;;;;;5096628;28;20092;-69
2022/10/31 04:58:21;;;;;;;13.80;6.07;;;;;;;;;;5094961;27;20139;-68
2022/10/31 05:00:47;;;;;;;9.63;7.30;;;;;;;;;;5093139;27;20186;-69
2022/10/31 05:03:13;;;;;;;11.38;6.38;;;;;;;;;;5099356;27;20044;-70
2022/10/31 05:05:39;;;;;;;8.18;6.22;;;;;;;;;;5099034;27;20075;-70
2022/10/31 05:08:05;;;;;;;7.22;6.15;;;;;;;;;;5092129;27;20044;-69
2022/10/31 05:10:31;;;;;;;9.52;5.68;;;;;;;;;;5097346;27;20044;-69
2022/10/31 05:12:59;;;;;;;17.75;9.63;;;;;;;;;;5097262;28;20039;-70
2022/10/31 05:15:26;;;;;;;26.15;11.00;;;;;;;;;;5094737;27;20046;-70
2022/10/31 05:17:52;;;;;;;22.33;10.63;;;;;;;;;;5098109;27;20206;-71
2022/10/31 05:20:19;;;;;;;7.38;3.83;;;;;;;;;;5095296;27;20050;-70
2022/10/31 05:22:45;;;;;;;5.93;1.95;;;;;;;;;;5099639;27;20054;-70
2022/10/31 05:25:12;;;;;;;8.43;4.95;;;;;;;;;;5095699;27;20131;-70
2022/10/31 05:27:42;;;;;;;6.85;5.63;;;;;;;;;;5097530;27;20043;-71
2022/10/31 05:30:08;;;;;;;4.82;1.92;;;;;;;;;;5098791;27;20207;-70
2022/10/31 05:32:38;;;;;;;2.40;1.10;;;;;;;;;;5096110;28;20082;-70
2022/10/31 05:35:05;;;;;;;1.35;1.25;;;;;;;;;;5097446;28;20727;-67
2022/10/31 05:37:31;;;;;;;5.03;1.70;;;;;;;;;;5094601;27;20508;-70
2022/10/31 05:39:57;;;;;;;8.77;1.90;;;;;;;;;;5090864;28;20044;-69
2022/10/31 05:42:23;;;;;;;4.22;2.13;;;;;;;;;;5093668;28;20048;-70
2022/10/31 05:44:49;;;;;;;5.75;2.53;;;;;;;;;;5087425;28;20506;-68
2022/10/31 05:47:15;;;;;;;17.35;2.72;;;;;;;;;;5093099;27;20078;-68
2022/10/31 05:49:41;;;;;;;10.80;2.80;;;;;;;;;;5095714;28;22155;-68
2022/10/31 05:52:06;;;;;;;4.25;2.30;;;;;;;;;;5096110;28;20046;-67
2022/10/31 05:54:32;;;;;;;3.45;2.60;;;;;;;;;;5094955;28;20054;-70
2022/10/31 05:56:58;;;;;;;5.72;2.83;;;;;;;;;;5092666;28;20654;-71
2022/10/31 05:59:24;;;;;;;3.58;2.95;;;;;;;;;;5097742;27;20105;-68
2022/10/31 06:01:50;;;;;;;3.03;2.80;;;;;;;;;;5095973;27;20047;-68
2022/10/31 06:04:16;;;;;;;4.43;3.20;;;;;;;;;;5091021;28;20108;-71
2022/10/31 06:06:42;;;;;;;3.83;3.53;;;;;;;;;;5100823;27;20047;-68
2022/10/31 06:09:08;;;;;;;7.38;4.72;;;;;;;;;;5093302;27;20101;-67
2022/10/31 06:11:34;;;;;;;12.20;5.40;;;;;;;;;;5097089;27;20056;-69
2022/10/31 06:14:00;;;;;;;12.13;3.58;;;;;;;;;;5092670;27;20048;-70
2022/10/31 06:16:26;;;;;;;4.97;3.90;;;;;;;;;;5095342;27;20048;-69
2022/10/31 06:18:52;;;;;;;5.47;3.33;;;;;;;;;;5094977;27;20060;-68
2022/10/31 06:21:18;;;;;;;8.88;3.22;;;;;;;;;;5094013;27;20048;-67
2022/10/31 06:23:44;;;;;;;7.22;3.53;;;;;;;;;;5098527;28;20099;-69
2022/10/31 06:26:10;;;;;;;4.88;3.47;;;;;;;;;;5095530;27;20043;-69
2022/10/31 06:28:36;;;;;;;3.55;3.20;;;;;;;;;;5094152;27;20131;-71
2022/10/31 06:31:02;;;;;;;4.85;3.10;;;;;;;;;;5096035;28;20048;-70
2022/10/31 06:33:28;;;;;;;4.05;3.40;;;;;;;;;;5087418;28;20103;-67
2022/10/31 06:35:54;;;;;;;4.22;3.75;;;;;;;;;;5090306;28;20048;-71
2022/10/31 06:38:20;;;;;;;8.23;5.10;;;;;;;;;;5095908;28;20044;-68
2022/10/31 06:40:46;;;;;;;13.93;6.05;;;;;;;;;;5092677;28;20039;-68
2022/10/31 06:43:14;;;;;;;33.20;7.22;;;;;;;;;;5098835;27;20039;-69
2022/10/31 06:45:40;;;;;;;21.08;6.30;;;;;;;;;;5096921;27;20040;-71
2022/10/31 06:48:06;;;;;;;13.73;5.15;;;;;;;;;;5092511;28;20073;-68
2022/10/31 06:50:32;;;;;;;12.80;5.13;;;;;;;;;;5101236;27;20131;-71
2022/10/31 06:52:59;;;;;;;7.93;4.57;;;;;;;;;;5105582;27;20479;-68
2022/10/31 06:55:26;;;;;;;5.72;4.38;;;;;;;;;;5098382;27;20099;-68
2022/10/31 06:57:55;;;;;;;3.60;3.30;;;;;;;;;;5097693;28;20269;-67
2022/10/31 07:00:22;;;;;;;4.50;3.63;;;;;;;;;;5091575;28;20043;-70
2022/10/31 07:02:58;;;;;;;5.10;3.80;;;;;;;;;;5102946;27;20044;-70
2022/10/31 07:05:24;;;;;;;4.28;3.63;;;;;;;;;;5095026;28;20036;-70
2022/10/31 07:07:58;;;;;;;6.20;3.75;;;;;;;;;;5072525;28;20048;-71
2022/10/31 07:10:25;;;;;;;6.22;4.13;;;;;;;;;;5093073;28;20097;-68
2022/10/31 07:12:55;;;;;;;6.07;4.70;;;;;;;;;;5094266;28;20052;-71
2022/10/31 07:15:22;;;;;;;9.18;4.90;;;;;;;;;;5092221;27;20043;-70
2022/10/31 07:17:48;;;;;;;11.05;5.72;;;;;;;;;;5090848;28;20051;-70
2022/10/31 07:20:14;;;;;;;9.00;5.47;;;;;;;;;;5097662;28;20085;-69
2022/10/31 07:22:40;;;;;;;11.35;5.88;;;;;;;;;;5095406;28;20044;-70
2022/10/31 07:25:06;;;;;;;6.43;5.65;;;;;;;;;;5098797;27;20098;-71
2022/10/31 07:27:39;;;;;;;6.45;5.78;;;;;;;;;;5096534;28;20078;-70
2022/10/31 07:30:05;;;;;;;10.82;6.47;;;;;;;;;;5098890;28;20039;-69
2022/10/31 07:32:41;;;;;;;15.25;7.63;;;;;;;;;;5091574;28;20103;-68
2022/10/31 07:35:08;;;;;;;18.27;7.55;;;;;;;;;;5089769;28;20040;-70
2022/10/31 07:37:34;;;;;;;11.13;6.85;;;;;;;;;;5094398;28;20083;-70
2022/10/31 07:40:00;;;;;;;8.00;6.82;;;;;;;;;;5096175;28;20074;-68
2022/10/31 07:42:26;;;;;;;8.55;7.60;;;;;;;;;;5096694;28;20039;-70
2022/10/31 07:44:52;;;;;;;11.80;7.70;;;;;;;;;;5095812;28;20203;-70
2022/10/31 07:47:18;;;;;;;10.48;8.07;;;;;;;;;;5099014;28;20043;-71
2022/10/31 07:49:44;;;;;;;29.15;8.45;;;;;;;;;;5092527;28;20052;-68
2022/10/31 07:52:10;;;;;;;10.95;8.18;;;;;;;;;;5094139;28;20043;-68
2022/10/31 07:54:36;;;;;;;10.23;8.00;;;;;;;;;;5102543;28;20063;-68
2022/10/31 07:57:01;;;;;;;14.57;8.95;;;;;;;;;;5106522;28;20094;-71
2022/10/31 07:59:27;;;;;;;11.85;9.80;;;;;;;;;;5095540;28;20046;-72
2022/10/31 08:01:53;;;;;;;39.92;11.35;;;;;;;;;;5058376;28;20052;-74
2022/10/31 08:04:19;;;;;;;31.40;13.98;;;;;;;;;;5078544;28;20039;-71
2022/10/31 08:06:48;;;;;;;29.73;14.65;;;;;;;;;;5096451;28;20067;-68
2022/10/31 08:09:14;;;;;;;34.90;14.98;;;;;;;;;;5102587;28;20050;-68
2022/10/31 08:11:40;;;;;;;79.20;17.13;;;;;;;;;;5113412;28;20043;-71
2022/10/31 08:14:06;;;;;;;130.18;19.15;;;;;;;;;;5100155;28;20430;-68
2022/10/31 08:16:31;;;;;;;44.20;17.95;;;;;;;;;;5091572;28;20098;-69
2022/10/31 08:18:57;;;;;;;23.17;16.27;;;;;;;;;;5075101;28;20076;-71
2022/10/31 08:21:23;;;;;;;23.58;16.02;;;;;;;;;;5085804;28;20494;-69
2022/10/31 08:23:49;;;;;;;23.48;16.98;;;;;;;;;;5087739;28;20121;-69
2022/10/31 08:26:15;;;;;;;52.05;23.73;;;;;;;;;;5084444;28;20054;-69
2022/10/31 08:28:41;;;;;;;69.60;27.95;;;;;;;;;;5079151;28;20050;-71
2022/10/31 08:31:08;;;;;;;94.25;26.02;;;;;;;;;;5075768;28;20054;-70
2022/10/31 08:33:34;;;;;;;61.90;23.77;;;;;;;;;;5106645;27;20393;-69
2022/10/31 08:36:00;;;;;;;42.00;22.63;;;;;;;;;;5109556;27;20040;-69
2022/10/31 08:38:26;;;;;;;43.65;22.33;;;;;;;;;;5103366;27;20047;-69
2022/10/31 08:40:52;;;;;;;50.40;22.83;;;;;;;;;;5104931;27;20286;-69
2022/10/31 08:43:19;;;;;;;35.53;22.75;;;;;;;;;;5112292;27;20047;-70
2022/10/31 08:45:47;;;;;;;33.60;21.83;;;;;;;;;;5113454;27;20047;-71
2022/10/31 08:48:15;;;;;;;38.92;24.13;;;;;;;;;;5112586;27;20036;-69
2022/10/31 08:50:41;;;;;;;34.15;23.25;;;;;;;;;;5103570;27;20171;-70
2022/10/31 08:53:09;;;;;;;33.17;22.85;;;;;;;;;;5109356;28;20119;-69
2022/10/31 08:55:35;;;;;;;37.35;25.05;;;;;;;;;;5105346;27;20382;-70
2022/10/31 08:58:02;;;;;;;34.05;22.67;;;;;;;;;;5100401;27;20055;-69
2022/10/31 09:00:28;;;;;;;35.40;23.63;;;;;;;;;;5104605;27;20130;-68
2022/10/31 09:02:58;;;;;;;28.95;23.40;;;;;;;;;;5110537;27;20465;-68
2022/10/31 09:05:24;;;;;;;35.55;23.45;;;;;;;;;;5110595;27;20040;-68
2022/10/31 09:07:50;;;;;;;43.17;23.83;;;;;;;;;;5093124;28;20052;-68
2022/10/31 09:10:16;;;;;;;53.97;25.27;;;;;;;;;;5090201;27;20579;-70
2022/10/31 09:12:41;;;;;;;43.38;24.38;;;;;;;;;;5102747;27;20405;-70
2022/10/31 09:15:08;;;;;;;40.25;25.67;;;;;;;;;;5102423;27;20047;-70
2022/10/31 09:17:34;;;;;;;35.63;25.90;;;;;;;;;;5103753;27;20051;-71
2022/10/31 09:20:00;;;;;;;36.85;25.42;;;;;;;;;;5095373;28;20424;-69
2022/10/31 09:22:26;;;;;;;36.53;26.20;;;;;;;;;;5093685;27;20092;-70
2022/10/31 09:24:52;;;;;;;51.45;28.42;;;;;;;;;;5098476;27;20407;-69
2022/10/31 09:27:18;;;;;;;41.05;26.42;;;;;;;;;;5115602;27;20035;-70
2022/10/31 09:29:44;;;;;;;33.85;26.55;;;;;;;;;;5112793;27;20094;-69
2022/10/31 09:32:10;;;;;;;33.78;26.40;;;;;;;;;;5111220;27;20059;-67
2022/10/31 09:34:36;;;;;;;35.25;26.65;;;;;;;;;;5109257;27;20050;-67
2022/10/31 09:37:01;;;;;;;34.63;27.50;;;;;;;;;;5109355;27;20052;-67
2022/10/31 09:39:27;;;;;;;38.08;28.50;;;;;;;;;;5106985;27;20055;-67
2022/10/31 09:42:02;;;;;;;39.97;29.08;;;;;;;;;;5108928;27;20039;-67
2022/10/31 09:44:38;;;;;;;36.95;27.70;;;;;;;;;;5101408;27;20048;-70
2022/10/31 09:47:07;;;;;;;35.78;28.05;;;;;;;;;;5112239;27;20040;-67
2022/10/31 09:49:33;;;;;;;35.60;27.38;;;;;;;;;;5102763;27;20047;-68
2022/10/31 09:52:05;;;;;;;35.22;26.70;;;;;;;;;;5106607;27;20098;-68
2022/10/31 09:54:45;;;;;;;31.20;25.75;;;;;;;;;;5101786;27;20090;-68
2022/10/31 09:57:13;;;;;;;242.77;35.20;;;;;;;;;;5102518;28;20444;-68
2022/10/31 09:59:41;;;;;;;36.50;27.20;;;;;;;;;;5113908;27;20546;-69
2022/10/31 10:02:14;;;;;;;35.78;26.90;;;;;;;;;;5108065;27;20036;-70
2022/10/31 10:04:43;;;;;;;36.22;27.67;;;;;;;;;;5109268;27;20090;-67
2022/10/31 10:07:21;;;;;;;37.47;28.30;;;;;;;;;;5107287;27;20048;-68
2022/10/31 10:09:47;;;;;;;38.28;28.98;;;;;;;;;;5102174;28;20109;-68
2022/10/31 10:12:32;;;;;;;37.00;29.15;;;;;;;;;;5112092;27;20054;-72
2022/10/31 10:15:17;;;;;;;40.28;31.23;;;;;;;;;;5100425;27;20044;-68
2022/10/31 10:18:01;;;;;;;38.15;28.42;;;;;;;;;;5109877;27;20047;-68
2022/10/31 10:20:32;;;;;;;36.63;28.50;;;;;;;;;;5099703;27;20047;-68
2022/10/31 10:23:16;;;;;;;34.67;28.05;;;;;;;;;;5094171;27;20050;-69
2022/10/31 10:25:44;;;;;;;42.53;29.83;;;;;;;;;;5094687;28;20055;-69
2022/10/31 10:28:19;;;;;;;37.10;28.17;;;;;;;;;;5103103;27;20402;-70
2022/10/31 10:30:47;;;;;;;55.08;29.52;;;;;;;;;;5089981;28;20193;-70
2022/10/31 10:33:16;;;;;;;35.75;26.02;;;;;;;;;;5100799;27;20036;-71
2022/10/31 10:36:04;;;;;;;31.15;25.00;;;;;;;;;;5115144;27;20038;-71
2022/10/31 10:38:30;;;;;;;31.45;24.95;;;;;;;;;;5112362;27;20046;-67
2022/10/31 10:40:58;;;;;;;31.45;22.88;;;;;;;;;;5104077;27;20043;-67
2022/10/31 10:43:25;;;;;;;28.02;22.00;;;;;;;;;;5108057;27;20050;-72
2022/10/31 10:48:48;;;;;;;28.80;20.83;;;;;;;;;;5101028;28;20050;-69
2022/10/31 10:51:26;;;;;;;26.35;20.15;;;;;;;;;;5110316;27;20044;-67
2022/10/31 10:54:01;;;;;;;26.42;19.27;;;;;;;;;;5084183;28;20188;-68
2022/10/31 10:56:36;;;;;;;26.02;19.00;;;;;;;;;;5099573;28;20130;-67
2022/10/31 10:59:03;;;;;;;24.63;18.55;;;;;;;;;;5096272;28;20063;-69
2022/10/31 11:01:30;;;;;;;23.98;17.42;;;;;;;;;;5114439;27;20046;-68
2022/10/31 11:03:56;;;;;;;20.13;16.08;;;;;;;;;;5106214;28;20058;-67
2022/10/31 11:06:25;;;;;;;19.02;15.45;;;;;;;;;;5109577;27;20378;-67
2022/10/31 11:08:52;;;;;;;19.30;14.43;;;;;;;;;;5098164;27;20052;-69
2022/10/31 11:11:17;;;;;;;22.35;15.25;;;;;;;;;;5090175;27;20051;-70
2022/10/31 11:13:48;;;;;;;21.60;15.52;;;;;;;;;;5089228;28;20112;-68
2022/10/31 11:16:26;;;;;;;24.65;16.80;;;;;;;;;;5092483;28;20063;-72
2022/10/31 11:18:53;;;;;;;20.20;16.00;;;;;;;;;;5091766;28;20130;-70
2022/10/31 11:21:27;;;;;;;26.58;15.63;;;;;;;;;;5092164;28;20043;-68
2022/10/31 11:24:23;;;;;;;22.63;15.70;;;;;;;;;;5090449;28;20036;-70
2022/10/31 11:26:50;;;;;;;19.77;15.52;;;;;;;;;;5085380;27;20448;-71
2022/10/31 11:29:25;;;;;;;20.00;14.63;;;;;;;;;;5104677;28;20042;-70
2022/10/31 11:31:54;;;;;;;22.25;15.07;;;;;;;;;;5086332;28;20044;-69
2022/10/31 11:34:31;;;;;;;20.63;15.05;;;;;;;;;;5096165;28;20050;-70
2022/10/31 11:37:02;;;;;;;22.08;15.30;;;;;;;;;;5090387;28;20044;-68
2022/10/31 11:39:28;;;;;;;22.17;14.55;;;;;;;;;;5090233;28;20070;-69
2022/10/31 11:41:54;;;;;;;19.00;14.52;;;;;;;;;;5089208;28;20138;-70
2022/10/31 11:44:26;;;;;;;25.02;14.25;;;;;;;;;;5089566;28;20044;-70
2022/10/31 11:46:58;;;;;;;21.98;14.38;;;;;;;;;;5094256;28;20540;-68
2022/10/31 11:49:33;;;;;;;19.13;14.18;;;;;;;;;;5094228;28;20059;-68
2022/10/31 11:52:01;;;;;;;22.48;13.32;;;;;;;;;;5091242;28;20048;-69
2022/10/31 11:54:33;;;;;;;17.60;12.93;;;;;;;;;;5093705;28;20532;-67
2022/10/31 11:56:59;;;;;;;18.77;13.07;;;;;;;;;;5092016;28;20036;-70
2022/10/31 11:59:28;;;;;;;18.25;12.73;;;;;;;;;;5100101;28;20355;-71
2022/10/31 12:01:55;;;;;;;18.85;11.90;;;;;;;;;;5095875;28;20039;-70
2022/10/31 12:04:24;;;;;;;20.88;12.57;;;;;;;;;;5091968;28;20126;-70
2022/10/31 12:06:52;;;;;;;18.02;12.23;;;;;;;;;;5089864;28;20064;-70
2022/10/31 12:09:18;;;;;;;14.95;11.35;;;;;;;;;;5094148;28;20040;-70
2022/10/31 12:11:47;;;;;;;15.95;10.95;;;;;;;;;;5094277;28;20101;-70
2022/10/31 12:14:13;;;;;;;14.70;10.88;;;;;;;;;;5096319;28;20051;-70
2022/10/31 12:16:44;;;;;;;17.15;10.98;;;;;;;;;;5076865;28;20043;-67
2022/10/31 12:19:16;;;;;;;18.30;10.50;;;;;;;;;;5100102;27;20100;-70
2022/10/31 12:21:57;;;;;;;15.27;10.07;;;;;;;;;;5080371;28;20051;-70
2022/10/31 12:24:33;;;;;;;20.13;11.63;;;;;;;;;;5097333;27;20044;-69
2022/10/31 12:27:07;;;;;;;18.15;11.52;;;;;;;;;;5096857;28;20045;-68
2022/10/31 12:29:41;;;;;;;17.90;10.70;;;;;;;;;;5101198;27;20065;-69
2022/10/31 12:32:19;;;;;;;17.50;10.95;;;;;;;;;;5096905;27;20047;-69
2022/10/31 12:34:45;;;;;;;19.88;11.15;;;;;;;;;;5090460;28;20409;-67
2022/10/31 12:37:26;;;;;;;17.00;11.05;;;;;;;;;;5102266;27;20048;-67
2022/10/31 12:39:52;;;;;;;19.08;11.73;;;;;;;;;;5095424;28;20043;-68
2022/10/31 12:42:38;;;;;;;20.08;12.65;;;;;;;;;;5096953;28;20043;-67
2022/10/31 12:45:04;;;;;;;21.23;12.55;;;;;;;;;;5095646;28;20130;-68
2022/10/31 12:47:38;;;;;;;19.15;11.85;;;;;;;;;;5093131;28;20217;-69
2022/10/31 12:50:06;;;;;;;17.58;12.00;;;;;;;;;;5110951;27;20205;-68
2022/10/31 12:52:40;;;;;;;16.98;11.75;;;;;;;;;;5111794;27;20114;-68
2022/10/31 12:55:15;;;;;;;21.10;12.40;;;;;;;;;;5097269;27;20043;-69
2022/10/31 12:57:46;;;;;;;17.38;12.25;;;;;;;;;;5094106;28;20062;-71
2022/10/31 13:00:14;;;;;;;22.08;12.45;;;;;;;;;;5101349;27;20135;-69
2022/10/31 13:02:47;;;;;;;17.45;12.35;;;;;;;;;;5098722;27;20067;-68
2022/10/31 13:05:33;;;;;;;18.02;12.45;;;;;;;;;;5096911;28;20067;-68
2022/10/31 13:08:07;;;;;;;19.27;11.88;;;;;;;;;;5095163;27;20097;-68
2022/10/31 13:10:40;;;;;;;18.77;12.45;;;;;;;;;;5096499;28;20052;-70
2022/10/31 13:13:10;;;;;;;17.60;12.27;;;;;;;;;;5080590;28;20093;-67
2022/10/31 13:15:46;;;;;;;16.65;11.52;;;;;;;;;;5092297;28;20098;-68
2022/10/31 13:18:23;;;;;;;20.02;11.98;;;;;;;;;;5092395;27;20125;-67
2022/10/31 13:20:50;;;;;;;17.55;10.43;;;;;;;;;;5096517;28;20051;-70
2022/10/31 13:23:17;;;;;;;14.82;10.40;;;;;;;;;;5094223;27;20089;-70
2022/10/31 13:25:45;;;;;;;16.27;10.38;;;;;;;;;;5098690;27;20050;-67
2022/10/31 13:28:30;;;;;;;14.50;9.93;;;;;;;;;;5098614;27;20081;-70
2022/10/31 13:30:56;;;;;;;21.35;9.85;;;;;;;;;;5099499;27;20184;-68
2022/10/31 13:33:28;;;;;;;13.45;9.18;;;;;;;;;;5100545;27;20044;-71
2022/10/31 13:36:03;;;;;;;16.00;9.80;;;;;;;;;;5098956;27;20040;-68
2022/10/31 13:38:37;;;;;;;14.38;9.13;;;;;;;;;;5093855;28;20290;-70
2022/10/31 13:41:23;;;;;;;12.65;8.65;;;;;;;;;;5093996;28;20396;-68
2022/10/31 13:43:55;;;;;;;15.75;8.95;;;;;;;;;;5091774;28;20059;-67
2022/10/31 13:46:33;;;;;;;13.30;9.60;;;;;;;;;;5095697;27;20054;-70
2022/10/31 13:49:00;;;;;;;13.13;8.68;;;;;;;;;;5091736;28;20092;-70
2022/10/31 13:51:28;;;;;;;15.27;8.88;;;;;;;;;;5089174;27;20573;-70
2022/10/31 13:53:58;;;;;;;14.50;9.10;;;;;;;;;;5095585;28;20052;-72
2022/10/31 13:56:29;;;;;;;14.80;8.27;;;;;;;;;;5092502;28;20048;-71
2022/10/31 13:59:16;;;;;;;14.27;8.93;;;;;;;;;;5093310;28;20040;-71
2022/10/31 14:01:51;;;;;;;13.35;9.05;;;;;;;;;;5090572;28;20073;-71
2022/10/31 14:04:18;;;;;;;16.08;9.45;;;;;;;;;;5071330;28;20142;-72
2022/10/31 14:06:45;;;;;;;16.98;8.93;;;;;;;;;;5085548;28;20062;-71
2022/10/31 14:09:22;;;;;;;16.05;9.25;;;;;;;;;;5094049;28;20085;-70
2022/10/31 14:11:49;;;;;;;17.80;9.07;;;;;;;;;;5091146;28;20071;-70
2022/10/31 14:14:15;;;;;;;13.77;8.52;;;;;;;;;;5089543;28;20043;-71
2022/10/31 14:16:43;;;;;;;16.20;8.95;;;;;;;;;;5080608;28;20494;-72
2022/10/31 14:19:17;;;;;;;14.82;9.32;;;;;;;;;;5088965;27;20071;-73
2022/10/31 14:21:44;;;;;;;25.40;9.43;;;;;;;;;;5093144;28;20052;-72
2022/10/31 14:24:16;;;;;;;20.48;9.05;;;;;;;;;;5086470;28;20081;-72
2022/10/31 14:26:56;;;;;;;15.07;9.02;;;;;;;;;;5091714;28;20498;-72
2022/10/31 14:29:24;;;;;;;15.48;8.88;;;;;;;;;;5092292;27;20070;-71
2022/10/31 14:31:55;;;;;;;19.88;9.23;;;;;;;;;;5076080;28;20093;-71
2022/10/31 14:34:24;;;;;;;15.60;8.93;;;;;;;;;;5087462;28;20133;-74
2022/10/31 14:37:13;;;;;;;19.52;8.50;;;;;;;;;;5077860;28;20055;-71